Time;durP1;ratioP1;P1;durP2;ratioP2;P2;SDS_P1;SDS_P2;PMS_P1;PMS_P2;Temp;Humidity;BMP_temperature;BMP_pressure;BME280_temperature;BME280_humidity;BME280_pressure;Samples;Min_cycle;Max_cycle;Signal;HPM_P1;HPM_P2
2021/11/28 00:00:54;;;;;;;18.33;13.87;;;1.20;99.90;;;;;;6183346;23;20431;-90
2021/11/28 00:03:21;;;;;;;19.07;14.00;;;1.20;99.90;;;;;;6184843;23;20164;-91
2021/11/28 00:05:59;;;;;;;17.30;14.00;;;1.20;99.90;;;;;;6184761;23;20396;-90
2021/11/28 00:11:26;;;;;;;14.70;11.40;;;1.20;99.90;;;;;;6209168;23;20858;-90
2021/11/28 00:16:30;;;;;;;10.73;8.90;;;1.20;99.90;;;;;;6226938;23;20384;-90
2021/11/28 00:18:56;;;;;;;10.27;8.20;;;1.30;99.90;;;;;;6183065;23;20396;-88
2021/11/28 00:21:22;;;;;;;10.67;8.57;;;1.20;99.90;;;;;;6183400;23;20390;-90
2021/11/28 00:23:48;;;;;;;9.43;8.33;;;1.20;99.90;;;;;;6182601;23;20881;-90
2021/11/28 00:26:14;;;;;;;8.30;6.93;;;1.20;99.90;;;;;;6183822;23;20612;-89
2021/11/28 00:28:41;;;;;;;9.87;7.80;;;1.20;99.90;;;;;;6182299;23;20397;-90
2021/11/28 00:31:07;;;;;;;9.10;8.07;;;1.10;99.90;;;;;;6182695;23;20195;-89
2021/11/28 00:33:33;;;;;;;9.47;7.30;;;1.30;99.90;;;;;;6185041;23;20477;-90
2021/11/28 00:35:59;;;;;;;8.33;7.07;;;1.20;99.90;;;;;;6182520;23;20405;-91
2021/11/28 00:38:25;;;;;;;9.63;8.70;;;1.20;99.90;;;;;;6183790;23;20883;-89
2021/11/28 00:40:51;;;;;;;9.30;7.93;;;1.20;99.90;;;;;;6184614;23;20401;-90
2021/11/28 00:43:18;;;;;;;9.83;7.30;;;1.20;99.90;;;;;;6183595;23;20478;-90
2021/11/28 00:45:45;;;;;;;9.13;7.70;;;1.20;99.90;;;;;;6180626;23;20161;-90
2021/11/28 00:48:10;;;;;;;9.57;8.00;;;1.20;99.90;;;;;;6182095;23;20395;-91
2021/11/28 00:50:45;;;;;;;8.70;7.40;;;1.20;99.90;;;;;;6184893;23;20439;-91
2021/11/28 00:53:13;;;;;;;12.33;7.97;;;1.10;99.90;;;;;;6183144;23;20505;-90
2021/11/28 00:55:53;;;;;;;9.40;7.40;;;1.10;99.90;;;;;;6177915;23;20547;-90
2021/11/28 00:58:37;;;;;;;10.70;7.63;;;1.30;99.90;;;;;;6208474;23;20399;-90
2021/11/28 01:01:03;;;;;;;10.60;7.23;;;1.30;99.90;;;;;;6179218;23;20419;-89
2021/11/28 01:03:29;;;;;;;11.83;9.53;;;1.20;99.90;;;;;;6181018;23;20432;-90
2021/11/28 01:05:55;;;;;;;11.53;7.40;;;1.20;99.90;;;;;;6182228;23;20415;-90
2021/11/28 01:08:21;;;;;;;11.73;7.13;;;1.20;99.90;;;;;;6180898;23;20165;-89
2021/11/28 01:10:48;;;;;;;8.00;7.20;;;1.30;99.90;;;;;;6181281;23;20191;-89
2021/11/28 01:13:15;;;;;;;10.60;7.70;;;1.40;99.90;;;;;;6181274;23;20399;-90
2021/11/28 01:15:52;;;;;;;9.10;7.40;;;1.50;99.90;;;;;;6182951;23;20403;-89
2021/11/28 01:18:18;;;;;;;10.90;7.50;;;1.40;99.90;;;;;;6179196;23;20407;-90
2021/11/28 01:20:44;;;;;;;7.60;6.90;;;1.20;99.90;;;;;;6180965;23;20578;-90
2021/11/28 01:23:09;;;;;;;8.20;6.90;;;1.30;99.90;;;;;;6181844;23;20174;-90
2021/11/28 01:25:35;;;;;;;8.80;6.30;;;1.30;99.90;;;;;;6180275;23;20169;-90
2021/11/28 01:28:14;;;;;;;9.90;7.10;;;1.30;99.90;;;;;;6178620;23;20671;-90
2021/11/28 01:30:40;;;;;;;10.50;8.13;;;1.50;99.90;;;;;;6179306;23;20436;-89
2021/11/28 01:33:05;;;;;;;7.40;6.60;;;1.50;99.90;;;;;;6180626;23;20419;-89
2021/11/28 01:35:35;;;;;;;8.40;6.60;;;1.50;99.90;;;;;;6179546;23;20166;-90
2021/11/28 01:38:04;;;;;;;10.00;6.10;;;1.50;99.90;;;;;;6181432;23;20305;-90
2021/11/28 01:40:31;;;;;;;8.40;6.63;;;1.40;99.90;;;;;;6180604;23;20409;-90
2021/11/28 01:43:06;;;;;;;7.87;6.60;;;1.40;99.90;;;;;;6180139;23;20383;-90
2021/11/28 01:45:34;;;;;;;6.63;5.83;;;1.40;99.90;;;;;;6199789;23;20469;-90
2021/11/28 01:48:01;;;;;;;7.67;6.77;;;1.40;99.90;;;;;;6182614;23;20397;-89
2021/11/28 01:50:29;;;;;;;6.90;6.27;;;1.40;99.90;;;;;;6178660;23;20429;-89
2021/11/28 01:52:55;;;;;;;7.43;6.47;;;1.40;99.90;;;;;;6177878;23;20407;-89
2021/11/28 01:55:24;;;;;;;8.40;6.57;;;1.50;99.90;;;;;;6179786;23;20524;-89
2021/11/28 01:57:51;;;;;;;8.70;6.67;;;1.40;99.90;;;;;;6182221;23;20409;-89
2021/11/28 02:00:39;;;;;;;7.27;6.57;;;1.40;99.90;;;;;;6180127;23;20452;-90
2021/11/28 02:03:07;;;;;;;8.40;7.03;;;1.30;99.90;;;;;;6184545;23;20390;-91
2021/11/28 02:05:33;;;;;;;8.57;6.90;;;1.30;99.90;;;;;;6186276;23;20448;-91
2021/11/28 02:07:59;;;;;;;6.23;5.63;;;1.40;99.90;;;;;;6183796;23;20406;-91
2021/11/28 02:10:26;;;;;;;6.57;5.87;;;1.40;99.90;;;;;;6180723;23;20514;-89
2021/11/28 02:12:52;;;;;;;8.80;6.47;;;1.50;99.90;;;;;;6179755;23;20234;-88
2021/11/28 02:15:19;;;;;;;9.27;6.70;;;1.40;99.90;;;;;;6178675;23;20395;-90
2021/11/28 02:17:50;;;;;;;9.77;6.20;;;1.50;99.90;;;;;;6179751;23;20559;-89
2021/11/28 02:20:16;;;;;;;7.70;5.90;;;1.60;99.90;;;;;;6181508;23;20391;-89
2021/11/28 02:22:43;;;;;;;6.83;6.13;;;1.60;99.90;;;;;;6180090;23;20408;-90
2021/11/28 02:25:10;;;;;;;6.77;6.07;;;1.60;99.90;;;;;;6181229;23;20398;-89
2021/11/28 02:27:36;;;;;;;7.60;6.03;;;1.50;99.90;;;;;;6181154;23;20753;-91
2021/11/28 02:30:03;;;;;;;10.50;6.40;;;1.50;99.90;;;;;;6178941;23;20418;-90
2021/11/28 02:32:29;;;;;;;7.97;6.40;;;1.50;99.90;;;;;;6182223;23;20182;-90
2021/11/28 02:34:55;;;;;;;7.27;6.50;;;1.40;99.90;;;;;;6184166;23;20465;-90
2021/11/28 02:37:22;;;;;;;6.73;6.03;;;1.40;99.90;;;;;;6181664;23;20254;-90
2021/11/28 02:39:48;;;;;;;7.60;6.83;;;1.30;99.90;;;;;;6181860;23;20691;-90
2021/11/28 02:42:18;;;;;;;6.17;5.67;;;1.30;99.90;;;;;;6181909;23;20460;-91
2021/11/28 02:44:45;;;;;;;7.57;6.50;;;1.20;99.90;;;;;;6184976;23;20389;-91
2021/11/28 02:47:11;;;;;;;8.00;6.40;;;1.20;99.90;;;;;;6182522;23;20396;-89
2021/11/28 02:49:37;;;;;;;7.90;5.77;;;1.10;99.90;;;;;;6183070;23;20390;-89
2021/11/28 02:52:03;;;;;;;5.47;5.03;;;1.20;99.90;;;;;;6181309;23;20444;-89
2021/11/28 02:54:29;;;;;;;6.63;5.23;;;1.20;99.90;;;;;;6180501;23;20162;-89
2021/11/28 02:56:57;;;;;;;8.27;5.80;;;1.30;99.90;;;;;;6181625;23;20492;-90
2021/11/28 02:59:23;;;;;;;7.00;5.93;;;1.30;99.90;;;;;;6181536;23;20170;-91
2021/11/28 03:01:48;;;;;;;8.70;5.50;;;1.40;99.90;;;;;;6183721;23;20392;-90
2021/11/28 03:04:14;;;;;;;6.83;5.93;;;1.40;99.90;;;;;;6181753;23;20605;-89
2021/11/28 03:06:40;;;;;;;6.80;5.03;;;1.50;99.90;;;;;;6181557;23;20163;-89
2021/11/28 03:09:06;;;;;;;6.47;4.80;;;1.60;99.90;;;;;;6183674;23;20625;-90
2021/11/28 03:11:32;;;;;;;6.30;4.93;;;1.50;99.90;;;;;;6181647;23;20451;-89
2021/11/28 03:13:58;;;;;;;6.67;5.07;;;1.50;99.90;;;;;;6186860;23;20396;-90
2021/11/28 03:16:28;;;;;;;7.43;5.97;;;1.40;99.90;;;;;;6196585;23;20612;-91
2021/11/28 03:19:14;;;;;;;10.17;5.73;;;1.40;99.90;;;;;;6185989;23;20609;-91
2021/11/28 03:21:41;;;;;;;5.80;4.80;;;1.40;99.90;;;;;;6184950;23;20396;-89
2021/11/28 03:24:07;;;;;;;8.33;5.60;;;1.60;99.90;;;;;;6180822;23;20433;-90
2021/11/28 03:26:40;;;;;;;6.63;5.13;;;1.30;99.90;;;;;;6182959;23;20451;-90
2021/11/28 03:29:08;;;;;;;6.77;5.57;;;1.30;99.90;;;;;;6183868;23;20395;-90
2021/11/28 03:31:38;;;;;;;7.60;6.03;;;1.40;99.90;;;;;;6182974;23;20435;-91
2021/11/28 03:34:05;;;;;;;6.07;5.07;;;1.40;99.90;;;;;;6182639;23;20395;-91
2021/11/28 03:36:48;;;;;;;6.10;5.50;;;1.40;99.90;;;;;;6183584;23;20402;-90
2021/11/28 03:39:15;;;;;;;6.93;6.27;;;1.30;99.90;;;;;;6183334;23;20402;-89
2021/11/28 03:41:53;;;;;;;6.27;5.07;;;1.30;99.90;;;;;;6181257;23;20407;-90
2021/11/28 03:44:19;;;;;;;5.83;5.20;;;1.20;99.90;;;;;;6180361;23;20394;-90
2021/11/28 03:46:45;;;;;;;9.70;5.53;;;1.20;99.90;;;;;;6180272;23;20407;-88
2021/11/28 03:49:10;;;;;;;7.00;5.30;;;1.30;99.90;;;;;;6179101;23;20446;-89
2021/11/28 03:51:36;;;;;;;8.93;5.60;;;1.30;99.90;;;;;;6181434;23;20804;-89
2021/11/28 03:54:04;;;;;;;7.67;6.00;;;1.30;99.90;;;;;;6182359;23;20163;-90
2021/11/28 03:56:31;;;;;;;6.63;5.20;;;1.30;99.90;;;;;;6181650;23;20419;-90
2021/11/28 03:58:57;;;;;;;7.17;5.60;;;1.30;99.90;;;;;;6180980;23;20417;-89
2021/11/28 04:01:23;;;;;;;6.50;5.20;;;1.20;99.90;;;;;;6181513;23;20406;-89
2021/11/28 04:03:49;;;;;;;8.07;6.17;;;1.10;99.90;;;;;;6181811;23;20396;-89
2021/11/28 04:06:15;;;;;;;10.13;7.20;;;1.10;99.90;;;;;;6179149;23;20409;-90
2021/11/28 04:08:41;;;;;;;8.90;6.10;;;1.00;99.90;;;;;;6180151;23;20247;-90
2021/11/28 04:11:08;;;;;;;11.40;7.30;;;1.10;99.90;;;;;;6181629;23;20486;-90
2021/11/28 04:13:33;;;;;;;9.40;7.37;;;1.20;99.90;;;;;;6181967;23;20407;-90
2021/11/28 04:15:59;;;;;;;7.87;6.70;;;1.20;99.90;;;;;;6177699;23;20893;-90
2021/11/28 04:18:25;;;;;;;10.00;6.70;;;1.10;99.90;;;;;;6179788;23;20159;-90
2021/11/28 04:20:51;;;;;;;7.97;6.60;;;1.10;99.90;;;;;;6181276;23;20167;-89
2021/11/28 04:25:49;;;;;;;8.03;6.23;;;1.00;99.90;;;;;;6209769;23;20395;-91
2021/11/28 04:28:15;;;;;;;8.90;6.60;;;1.00;99.90;;;;;;6180032;23;20916;-89
2021/11/28 04:30:41;;;;;;;8.40;6.07;;;1.10;99.90;;;;;;6179963;23;20943;-89
2021/11/28 04:33:08;;;;;;;9.40;7.10;;;1.00;99.90;;;;;;6178694;23;20509;-88
2021/11/28 04:35:34;;;;;;;9.53;5.80;;;1.00;99.90;;;;;;6178922;23;20880;-88
2021/11/28 04:38:00;;;;;;;10.67;6.40;;;1.00;99.90;;;;;;6177111;23;20400;-89
2021/11/28 04:40:25;;;;;;;7.83;7.03;;;1.10;99.90;;;;;;6178673;23;20490;-88
2021/11/28 04:42:51;;;;;;;6.73;6.03;;;1.20;99.90;;;;;;6178465;23;20423;-88
2021/11/28 04:45:17;;;;;;;8.40;6.67;;;1.30;99.90;;;;;;6194384;23;20164;-89
2021/11/28 04:47:42;;;;;;;7.50;6.40;;;1.40;99.90;;;;;;6184904;23;20160;-90
2021/11/28 04:50:12;;;;;;;7.00;6.17;;;1.40;99.90;;;;;;6181251;23;20171;-90
2021/11/28 04:52:38;;;;;;;8.30;6.47;;;1.40;99.90;;;;;;6180823;23;20351;-89
2021/11/28 04:55:07;;;;;;;9.23;6.00;;;1.30;99.90;;;;;;6181778;23;20428;-89
2021/11/28 04:57:33;;;;;;;8.00;6.50;;;1.40;99.90;;;;;;6180433;23;20699;-90
2021/11/28 04:59:59;;;;;;;7.70;5.53;;;1.30;99.90;;;;;;6180832;23;20394;-89
2021/11/28 05:02:25;;;;;;;6.37;5.67;;;1.30;99.90;;;;;;6180008;23;20739;-90
2021/11/28 05:04:51;;;;;;;7.20;6.07;;;1.30;99.90;;;;;;6180619;23;20709;-89
2021/11/28 05:07:18;;;;;;;6.93;5.80;;;1.40;99.90;;;;;;6178572;23;20226;-89
2021/11/28 05:09:43;;;;;;;7.40;5.93;;;1.30;99.90;;;;;;6181325;23;20396;-90
2021/11/28 05:12:09;;;;;;;10.37;6.50;;;1.20;99.90;;;;;;6178623;23;20447;-89
2021/11/28 05:14:41;;;;;;;8.97;6.87;;;1.20;99.90;;;;;;6178967;23;20416;-89
2021/11/28 05:17:06;;;;;;;6.10;5.50;;;1.20;99.90;;;;;;6178732;23;20958;-87
2021/11/28 05:19:32;;;;;;;6.50;5.80;;;1.30;99.90;;;;;;6180188;23;20413;-89
2021/11/28 05:21:59;;;;;;;7.30;5.83;;;1.40;99.90;;;;;;6179663;23;20197;-90
2021/11/28 05:24:28;;;;;;;6.23;5.63;;;1.40;99.90;;;;;;6181853;23;20165;-90
2021/11/28 05:26:54;;;;;;;9.40;6.00;;;1.20;99.90;;;;;;6185163;23;20706;-90
2021/11/28 05:29:19;;;;;;;10.43;6.10;;;1.30;99.90;;;;;;6181466;23;20388;-90
2021/11/28 05:31:45;;;;;;;8.43;6.20;;;1.40;99.90;;;;;;6182377;23;20189;-90
2021/11/28 05:34:11;;;;;;;8.23;5.90;;;1.40;99.90;;;;;;6185790;23;20168;-91
2021/11/28 05:36:38;;;;;;;6.20;5.60;;;1.30;99.90;;;;;;6183888;23;20410;-90
2021/11/28 05:39:04;;;;;;;5.93;5.30;;;1.30;99.90;;;;;;6181390;23;20327;-90
2021/11/28 05:41:30;;;;;;;6.50;5.60;;;1.40;99.90;;;;;;6181422;23;20849;-89
2021/11/28 05:43:56;;;;;;;6.33;5.73;;;1.30;99.90;;;;;;6179653;23;20876;-89
2021/11/28 05:46:22;;;;;;;9.47;5.77;;;1.40;99.90;;;;;;6181931;23;20413;-89
2021/11/28 05:48:48;;;;;;;5.77;5.17;;;1.50;99.90;;;;;;6182034;23;20392;-90
2021/11/28 05:51:13;;;;;;;6.03;5.43;;;1.50;99.90;;;;;;6184126;23;20430;-89
2021/11/28 05:53:39;;;;;;;6.60;5.50;;;1.50;99.90;;;;;;6179012;23;20327;-90
2021/11/28 05:56:05;;;;;;;6.50;5.70;;;1.50;99.90;;;;;;6183327;23;20543;-90
2021/11/28 05:58:32;;;;;;;7.57;5.03;;;1.40;99.90;;;;;;6182201;23;20173;-89
2021/11/28 06:00:59;;;;;;;5.00;4.50;;;1.40;99.90;;;;;;6183292;23;20389;-91
2021/11/28 06:03:30;;;;;;;9.00;4.77;;;1.50;99.90;;;;;;6183900;23;20403;-92
2021/11/28 06:06:04;;;;;;;5.07;4.57;;;1.60;99.90;;;;;;6154561;23;20417;-91
2021/11/28 06:08:55;;;;;;;7.47;5.37;;;1.60;99.90;;;;;;6187353;23;20397;-90
2021/11/28 06:11:30;;;;;;;5.17;4.70;;;1.60;99.90;;;;;;6194239;23;20487;-91
2021/11/28 06:13:57;;;;;;;7.33;5.17;;;1.50;99.90;;;;;;6193066;23;20387;-91
2021/11/28 06:16:22;;;;;;;7.03;5.77;;;1.40;99.90;;;;;;6196735;23;20429;-91
2021/11/28 06:18:48;;;;;;;6.30;5.53;;;1.30;99.90;;;;;;6175664;23;20388;-89
2021/11/28 06:21:17;;;;;;;7.40;5.80;;;1.30;99.90;;;;;;6175331;23;20395;-88
2021/11/28 06:23:43;;;;;;;7.07;5.83;;;1.40;99.90;;;;;;6180860;23;20406;-91
2021/11/28 06:26:11;;;;;;;7.87;5.20;;;1.40;99.90;;;;;;6185454;23;20220;-90
2021/11/28 06:28:38;;;;;;;6.10;5.60;;;1.40;99.90;;;;;;6179348;23;20482;-90
2021/11/28 06:31:04;;;;;;;7.13;6.37;;;1.30;99.90;;;;;;6160854;23;20763;-90
2021/11/28 06:33:32;;;;;;;8.70;5.80;;;1.30;99.90;;;;;;6188437;23;20456;-92
2021/11/28 06:35:58;;;;;;;6.53;5.90;;;1.30;99.90;;;;;;6177782;23;20406;-89
2021/11/28 06:38:55;;;;;;;5.87;5.23;;;1.30;99.90;;;;;;6202527;23;20445;-89
2021/11/28 06:41:36;;;;;;;6.23;5.63;;;1.30;99.90;;;;;;6205005;23;20610;-89
2021/11/28 06:44:01;;;;;;;6.57;5.90;;;1.30;99.90;;;;;;6181841;23;20748;-89
2021/11/28 06:46:27;;;;;;;9.57;6.30;;;1.30;99.90;;;;;;6178488;23;20400;-88
2021/11/28 06:48:53;;;;;;;8.40;6.30;;;1.30;99.90;;;;;;6176952;23;20160;-87
2021/11/28 06:51:19;;;;;;;10.53;6.60;;;1.30;99.90;;;;;;6176368;23;20595;-87
2021/11/28 06:53:44;;;;;;;8.40;6.20;;;1.30;99.90;;;;;;6177600;23;20171;-88
2021/11/28 06:56:10;;;;;;;10.97;7.03;;;1.30;99.90;;;;;;6179721;23;20184;-87
2021/11/28 06:58:36;;;;;;;10.20;6.53;;;1.40;99.90;;;;;;6176823;23;20841;-87
2021/11/28 07:01:03;;;;;;;8.07;6.30;;;1.50;99.90;;;;;;6178576;23;20441;-87
2021/11/28 07:03:29;;;;;;;6.50;5.80;;;1.50;99.90;;;;;;6180312;23;20167;-89
2021/11/28 07:05:55;;;;;;;6.07;5.10;;;1.50;99.90;;;;;;6179497;23;20470;-85
2021/11/28 07:08:20;;;;;;;7.93;5.50;;;1.50;99.90;;;;;;6179506;23;20398;-88
2021/11/28 07:10:46;;;;;;;6.30;5.70;;;1.60;99.90;;;;;;6180202;23;20216;-87
2021/11/28 07:13:12;;;;;;;8.17;6.60;;;1.60;99.90;;;;;;6177799;23;20254;-87
2021/11/28 07:15:39;;;;;;;9.00;6.33;;;1.50;99.90;;;;;;6179360;23;20402;-87
2021/11/28 07:18:05;;;;;;;7.73;5.33;;;1.40;99.90;;;;;;6179509;23;20402;-89
2021/11/28 07:20:32;;;;;;;6.10;5.50;;;1.40;99.90;;;;;;6207925;23;20384;-90
2021/11/28 07:22:59;;;;;;;8.00;5.60;;;1.60;99.90;;;;;;6178564;23;20392;-88
2021/11/28 07:25:25;;;;;;;6.80;6.03;;;1.60;99.90;;;;;;6180377;23;20401;-86
2021/11/28 07:27:51;;;;;;;8.87;6.67;;;1.70;99.90;;;;;;6181079;23;20405;-89
2021/11/28 07:30:17;;;;;;;4.83;4.30;;;1.50;99.90;;;;;;6185194;23;20386;-88
2021/11/28 07:32:48;;;;;;;7.03;5.47;;;1.60;99.90;;;;;;6178116;23;20491;-87
2021/11/28 07:35:14;;;;;;;6.13;5.03;;;1.60;99.90;;;;;;6175330;23;20882;-87
2021/11/28 07:37:47;;;;;;;10.60;5.40;;;1.50;99.90;;;;;;6185596;23;20676;-87
2021/11/28 07:40:16;;;;;;;7.10;5.20;;;1.50;99.90;;;;;;6178673;23;20755;-86
2021/11/28 07:42:42;;;;;;;9.57;6.10;;;1.60;99.90;;;;;;6180612;23;20421;-88
2021/11/28 07:45:10;;;;;;;7.03;6.33;;;1.60;99.90;;;;;;6188778;23;20397;-87
2021/11/28 07:47:36;;;;;;;9.00;6.40;;;1.60;99.90;;;;;;6182995;23;20833;-88
2021/11/28 07:50:03;;;;;;;8.10;6.40;;;1.70;99.90;;;;;;6178401;23;20402;-87
2021/11/28 07:52:29;;;;;;;9.57;6.03;;;1.90;99.90;;;;;;6177072;23;20495;-87
2021/11/28 07:55:00;;;;;;;7.37;6.57;;;2.00;99.90;;;;;;6180585;23;20398;-87
2021/11/28 07:57:28;;;;;;;8.33;6.73;;;2.00;99.90;;;;;;6180450;23;20225;-87
2021/11/28 07:59:53;;;;;;;10.20;8.00;;;2.00;99.90;;;;;;6180139;23;20898;-87
2021/11/28 08:02:22;;;;;;;8.13;7.30;;;2.00;99.90;;;;;;6178829;23;20398;-87
2021/11/28 08:04:48;;;;;;;8.37;6.97;;;1.90;99.90;;;;;;6177202;23;20551;-87
2021/11/28 08:07:15;;;;;;;8.13;7.07;;;2.00;99.90;;;;;;6178691;23;20402;-88
2021/11/28 08:09:41;;;;;;;8.97;6.90;;;2.10;99.90;;;;;;6179684;23;20399;-87
2021/11/28 08:12:07;;;;;;;8.60;6.50;;;2.20;99.90;;;;;;6180489;23;21001;-87
2021/11/28 08:14:35;;;;;;;8.70;7.40;;;2.40;99.90;;;;;;6178989;23;20155;-86
2021/11/28 08:17:01;;;;;;;7.10;6.00;;;2.50;99.90;;;;;;6181975;23;20477;-87
2021/11/28 08:19:26;;;;;;;7.97;6.97;;;2.60;99.90;;;;;;6180720;23;20441;-88
2021/11/28 08:21:53;;;;;;;8.03;7.27;;;2.70;99.90;;;;;;6182783;23;20399;-88
2021/11/28 08:24:18;;;;;;;8.93;8.10;;;2.60;99.90;;;;;;6176840;23;20601;-89
2021/11/28 08:26:44;;;;;;;9.73;7.27;;;2.60;99.90;;;;;;6179582;23;20405;-89
2021/11/28 08:29:10;;;;;;;7.17;6.47;;;2.60;99.90;;;;;;6181378;23;20242;-88
2021/11/28 08:31:36;;;;;;;6.87;6.13;;;2.60;99.90;;;;;;6174759;23;20206;-89
2021/11/28 08:34:02;;;;;;;5.90;5.30;;;2.70;99.90;;;;;;6176483;23;20387;-89
2021/11/28 08:36:28;;;;;;;8.60;7.00;;;2.60;99.90;;;;;;6176758;23;20401;-88
2021/11/28 08:38:55;;;;;;;7.57;6.47;;;2.60;99.90;;;;;;6176939;23;20394;-86
2021/11/28 08:41:22;;;;;;;7.63;6.43;;;2.60;99.90;;;;;;6177084;23;20331;-88
2021/11/28 08:43:51;;;;;;;7.47;5.97;;;2.80;99.90;;;;;;6178151;23;20710;-88
2021/11/28 08:46:18;;;;;;;7.50;6.70;;;2.90;99.90;;;;;;6177275;23;20398;-88
2021/11/28 08:48:44;;;;;;;8.27;7.43;;;2.90;99.90;;;;;;6179251;23;20817;-88
2021/11/28 08:51:10;;;;;;;11.73;9.00;;;3.00;99.90;;;;;;6182937;23;20785;-89
2021/11/28 08:53:37;;;;;;;13.33;10.67;;;3.10;99.90;;;;;;6177283;23;20652;-86
2021/11/28 08:56:03;;;;;;;9.03;7.40;;;3.00;99.90;;;;;;6177051;23;20777;-88
2021/11/28 08:58:38;;;;;;;11.30;7.70;;;3.00;99.90;;;;;;6178629;23;20427;-88
2021/11/28 09:01:05;;;;;;;10.53;7.30;;;3.00;99.90;;;;;;6178010;23;20695;-87
2021/11/28 09:03:30;;;;;;;9.33;7.43;;;3.00;99.90;;;;;;6178947;23;20485;-88
2021/11/28 09:05:56;;;;;;;9.20;6.73;;;3.10;99.90;;;;;;6177977;23;20772;-87
2021/11/28 09:08:25;;;;;;;8.63;6.37;;;3.10;99.90;;;;;;6178534;23;20222;-88
2021/11/28 09:10:51;;;;;;;7.40;5.90;;;3.30;99.90;;;;;;6176902;23;20643;-88
2021/11/28 09:13:16;;;;;;;5.83;4.37;;;3.50;99.90;;;;;;6179333;23;20410;-87
2021/11/28 09:15:43;;;;;;;6.33;5.63;;;3.50;99.90;;;;;;6198847;23;20359;-87
2021/11/28 09:20:37;;;;;;;12.70;8.63;;;3.30;99.90;;;;;;6202144;23;20397;-88
2021/11/28 09:25:30;;;;;;;9.63;7.07;;;3.30;99.90;;;;;;6203030;23;20733;-90
2021/11/28 09:28:00;;;;;;;8.83;6.73;;;3.30;99.90;;;;;;6176806;23;21177;-91
2021/11/28 09:30:28;;;;;;;8.90;6.23;;;3.30;99.90;;;;;;6177047;23;20596;-89
2021/11/28 09:32:55;;;;;;;4.63;4.20;;;3.30;99.90;;;;;;6175279;23;20812;-89
2021/11/28 09:35:25;;;;;;;6.50;4.50;;;3.40;99.90;;;;;;6176738;23;20502;-89
2021/11/28 09:37:52;;;;;;;5.03;4.60;;;3.30;99.90;;;;;;6175883;23;20407;-87
2021/11/28 09:40:18;;;;;;;8.03;4.80;;;3.40;99.90;;;;;;6176906;23;20399;-89
2021/11/28 09:43:07;;;;;;;6.60;5.87;;;3.40;99.90;;;;;;6179652;23;20434;-92
2021/11/28 09:45:32;;;;;;;5.33;4.83;;;3.50;99.90;;;;;;6183233;23;20398;-94
2021/11/28 09:47:59;;;;;;;5.50;5.00;;;3.50;99.90;;;;;;6179607;23;20402;-93
2021/11/28 09:50:33;;;;;;;8.07;6.13;;;3.40;99.90;;;;;;6180337;23;20556;-94
2021/11/28 09:53:01;;;;;;;7.30;6.60;;;3.50;99.90;;;;;;6177948;23;20406;-93
2021/11/28 09:55:27;;;;;;;7.03;5.80;;;3.40;99.90;;;;;;6178438;23;20398;-92
2021/11/28 09:57:53;;;;;;;10.73;6.83;;;3.10;99.90;;;;;;6180562;23;20402;-94
2021/11/28 10:00:21;;;;;;;11.13;8.23;;;3.00;99.90;;;;;;6182938;23;20730;-91
2021/11/28 10:02:47;;;;;;;9.50;6.30;;;3.00;99.90;;;;;;6209158;23;20401;-93
2021/11/28 10:05:17;;;;;;;6.00;5.43;;;2.90;99.90;;;;;;6179545;23;20514;-93
2021/11/28 10:07:46;;;;;;;5.50;4.90;;;3.00;99.90;;;;;;6185350;23;20195;-93
2021/11/28 10:10:15;;;;;;;7.00;5.77;;;3.30;99.90;;;;;;6192980;23;20759;-93
2021/11/28 10:12:43;;;;;;;8.60;5.83;;;3.50;99.90;;;;;;6183076;23;20438;-91
2021/11/28 10:15:15;;;;;;;7.50;6.70;;;3.60;99.90;;;;;;6186769;23;20453;-92
2021/11/28 10:17:40;;;;;;;6.40;5.80;;;3.60;99.90;;;;;;6191655;23;20407;-90
2021/11/28 10:20:16;;;;;;;5.67;5.17;;;3.50;99.90;;;;;;6186562;23;20730;-92
2021/11/28 10:22:42;;;;;;;7.33;6.17;;;3.40;99.90;;;;;;6186816;23;20189;-91
2021/11/28 10:25:26;;;;;;;7.37;5.97;;;3.50;99.90;;;;;;6192809;23;20398;-94
2021/11/28 10:27:57;;;;;;;6.60;5.63;;;3.50;99.90;;;;;;6187073;23;20389;-92
2021/11/28 10:30:38;;;;;;;9.40;6.70;;;3.50;99.90;;;;;;6186557;23;20945;-93
2021/11/28 10:33:20;;;;;;;9.27;6.93;;;3.70;99.90;;;;;;6186376;23;20531;-90
2021/11/28 10:36:00;;;;;;;7.90;6.00;;;3.90;99.90;;;;;;6181541;23;20402;-90
2021/11/28 10:38:43;;;;;;;7.40;5.50;;;4.00;99.90;;;;;;6181999;23;20394;-92
2021/11/28 10:41:28;;;;;;;9.77;7.00;;;4.10;99.90;;;;;;6186163;23;20405;-92
2021/11/28 10:43:55;;;;;;;13.37;7.30;;;4.00;99.90;;;;;;6186329;23;20424;-86
2021/11/28 10:46:32;;;;;;;7.17;6.30;;;4.20;99.90;;;;;;6186590;23;20473;-88
2021/11/28 10:49:22;;;;;;;7.43;5.90;;;4.10;99.90;;;;;;6176357;23;20406;-83
2021/11/28 10:51:50;;;;;;;6.77;5.30;;;4.00;99.90;;;;;;6176675;23;20500;-84
2021/11/28 10:54:23;;;;;;;7.03;6.00;;;4.10;99.90;;;;;;6175592;23;20876;-84
2021/11/28 10:57:01;;;;;;;8.03;5.43;;;4.20;99.90;;;;;;6179035;23;20448;-84
2021/11/28 10:59:29;;;;;;;5.47;4.40;;;4.10;99.90;;;;;;6177513;23;20392;-83
2021/11/28 11:01:54;;;;;;;5.37;4.30;;;4.20;99.90;;;;;;6179172;23;20400;-84
2021/11/28 11:04:21;;;;;;;6.80;4.70;;;4.10;99.90;;;;;;6176748;23;20395;-84
2021/11/28 11:07:12;;;;;;;3.40;3.10;;;4.30;99.90;;;;;;6180701;23;20172;-85
2021/11/28 11:09:41;;;;;;;2.97;2.53;;;4.20;99.90;;;;;;6163468;23;20388;-86
2021/11/28 11:12:42;;;;;;;4.73;3.03;;;4.20;99.90;;;;;;6178800;23;20449;-86
2021/11/28 11:15:08;;;;;;;3.90;3.20;;;4.20;99.90;;;;;;6116654;23;20516;-86
2021/11/28 11:17:57;;;;;;;4.60;3.23;;;4.00;99.90;;;;;;6178789;23;20407;-86
2021/11/28 11:20:31;;;;;;;5.00;3.73;;;3.80;99.90;;;;;;6183181;23;20391;-86
2021/11/28 11:22:57;;;;;;;4.10;2.80;;;3.90;99.90;;;;;;6175205;23;20403;-86
2021/11/28 11:25:32;;;;;;;2.77;2.50;;;4.10;99.90;;;;;;6178712;23;20390;-86
2021/11/28 11:28:10;;;;;;;2.77;2.50;;;4.20;99.90;;;;;;6174272;23;20171;-82
2021/11/28 11:30:35;;;;;;;3.73;2.50;;;4.30;99.90;;;;;;6177392;23;20401;-86
2021/11/28 11:33:01;;;;;;;4.90;2.60;;;4.30;99.90;;;;;;6180008;23;20731;-84
2021/11/28 11:35:33;;;;;;;3.27;2.73;;;4.30;99.90;;;;;;6177932;23;20493;-85
2021/11/28 11:38:12;;;;;;;2.80;2.20;;;4.20;99.90;;;;;;6180757;23;20411;-85
2021/11/28 11:40:38;;;;;;;4.57;3.20;;;4.20;99.90;;;;;;6181112;23;20898;-85
2021/11/28 11:43:05;;;;;;;3.50;2.60;;;4.40;99.90;;;;;;6179486;23;20889;-85
2021/11/28 11:45:35;;;;;;;3.10;2.60;;;4.40;99.90;;;;;;6178688;23;20416;-85
2021/11/28 11:48:00;;;;;;;5.83;2.67;;;4.50;99.90;;;;;;6179172;23;20773;-84
2021/11/28 11:50:28;;;;;;;2.40;2.17;;;4.30;99.90;;;;;;6180062;23;20395;-85
2021/11/28 11:52:54;;;;;;;2.13;1.97;;;4.30;99.90;;;;;;6179963;23;20642;-85
2021/11/28 11:55:30;;;;;;;5.37;3.00;;;4.30;99.90;;;;;;6184555;23;20402;-85
2021/11/28 11:58:09;;;;;;;5.57;3.20;;;4.10;99.90;;;;;;6181101;23;20551;-85
2021/11/28 12:01:02;;;;;;;5.77;4.43;;;4.00;99.90;;;;;;6179890;23;20398;-86
2021/11/28 12:03:28;;;;;;;4.17;3.53;;;4.00;99.90;;;;;;6177952;23;20699;-85
2021/11/28 12:05:56;;;;;;;3.73;3.33;;;4.00;99.90;;;;;;6180208;23;20409;-87
2021/11/28 12:08:25;;;;;;;4.73;3.50;;;4.10;99.90;;;;;;6181869;23;20479;-86
2021/11/28 12:10:56;;;;;;;6.63;3.57;;;4.20;99.90;;;;;;6185968;23;20432;-88
2021/11/28 12:13:25;;;;;;;3.67;3.37;;;4.20;99.90;;;;;;6184758;23;20475;-87
2021/11/28 12:15:52;;;;;;;3.97;3.27;;;4.20;99.90;;;;;;6188079;23;20406;-87
2021/11/28 12:18:38;;;;;;;4.40;3.80;;;4.20;99.90;;;;;;6178800;23;20886;-87
2021/11/28 12:21:09;;;;;;;4.67;3.40;;;4.10;99.90;;;;;;6182169;23;20404;-86
2021/11/28 12:23:49;;;;;;;3.57;3.20;;;4.20;99.90;;;;;;6182254;23;20403;-87
2021/11/28 12:26:27;;;;;;;3.70;2.70;;;4.20;99.90;;;;;;6179281;23;20399;-87
2021/11/28 12:29:19;;;;;;;3.60;2.77;;;4.20;99.90;;;;;;6180751;23;20727;-86
2021/11/28 12:31:50;;;;;;;3.23;2.93;;;4.20;99.90;;;;;;6174821;23;20479;-87
2021/11/28 12:34:22;;;;;;;3.00;2.70;;;4.00;99.90;;;;;;6180088;23;20393;-87
2021/11/28 12:36:50;;;;;;;3.90;2.97;;;4.10;99.90;;;;;;6179594;23;20416;-87
2021/11/28 12:39:16;;;;;;;3.23;2.93;;;4.20;99.90;;;;;;6178540;23;20855;-86
2021/11/28 12:41:48;;;;;;;6.33;3.67;;;4.20;99.90;;;;;;6179151;23;20397;-87
2021/11/28 12:44:17;;;;;;;4.17;2.80;;;4.20;99.90;;;;;;6177816;23;20537;-87
2021/11/28 12:46:44;;;;;;;4.33;2.93;;;4.30;99.90;;;;;;6177997;23;20403;-86
2021/11/28 12:49:51;;;;;;;3.33;3.03;;;4.30;99.90;;;;;;6179937;23;20463;-87
2021/11/28 12:52:23;;;;;;;3.30;3.00;;;4.30;99.90;;;;;;6178617;23;20453;-87
2021/11/28 12:55:04;;;;;;;4.47;2.60;;;4.40;99.90;;;;;;6177899;23;20397;-86
2021/11/28 12:57:30;;;;;;;3.63;2.30;;;4.40;99.90;;;;;;6176798;23;20428;-85
2021/11/28 13:00:26;;;;;;;3.70;2.30;;;4.40;99.90;;;;;;6178321;23;20489;-88
2021/11/28 13:03:01;;;;;;;2.97;2.67;;;4.40;99.90;;;;;;6179059;23;20171;-88
2021/11/28 13:05:27;;;;;;;4.33;2.70;;;4.40;99.90;;;;;;6179199;23;22110;-89
2021/11/28 13:07:53;;;;;;;6.10;3.10;;;4.50;99.90;;;;;;6179023;23;20849;-87
2021/11/28 13:10:27;;;;;;;3.70;2.90;;;4.50;99.90;;;;;;6178023;23;20174;-88
2021/11/28 13:13:01;;;;;;;4.83;3.47;;;4.60;99.90;;;;;;6178301;23;20489;-89
2021/11/28 13:15:31;;;;;;;3.20;2.90;;;4.70;99.90;;;;;;6178509;23;20503;-87
2021/11/28 13:17:59;;;;;;;5.10;3.23;;;4.70;99.90;;;;;;6178490;23;20452;-86